Time;durP1;ratioP1;P1;durP2;ratioP2;P2;SDS_P1;SDS_P2;PMS_P1;PMS_P2;Temp;Humidity;BMP_temperature;BMP_pressure;BME280_temperature;BME280_humidity;BME280_pressure;Samples;Min_cycle;Max_cycle;Signal;HPM_P1;HPM_P2
2022/10/08 00:01:17;;;;;;;0.00;0.00;;;;;;;11.48;65.06;101358.94;7357779;19;20040;-57
2022/10/08 00:03:46;;;;;;;0.00;0.00;;;;;;;11.47;65.23;101353.75;7361717;19;20026;-57
2022/10/08 00:06:15;;;;;;;0.00;0.00;;;;;;;11.42;65.67;101352.06;7361964;19;20011;-57
2022/10/08 00:08:45;;;;;;;0.00;0.00;;;;;;;11.41;65.92;101352.97;7364335;19;20039;-55
2022/10/08 00:11:16;;;;;;;0.00;0.00;;;;;;;11.41;65.58;101357.31;7363761;19;20041;-56
2022/10/08 00:13:44;;;;;;;0.00;0.00;;;;;;;11.39;65.16;101359.09;7362510;19;20010;-57
2022/10/08 00:16:27;;;;;;;0.00;0.00;;;;;;;11.38;65.65;101368.69;7364134;19;20458;-58
2022/10/08 00:18:56;;;;;;;0.00;0.00;;;;;;;11.33;66.01;101359.19;7364347;19;20761;-58
2022/10/08 00:21:25;;;;;;;0.00;0.00;;;;;;;11.35;65.02;101366.13;7360892;19;20110;-58
2022/10/08 00:23:51;;;;;;;0.00;0.00;;;;;;;11.27;65.95;101359.28;7362635;19;20089;-58
2022/10/08 00:26:22;;;;;;;0.00;0.00;;;;;;;11.31;65.67;101371.44;7363601;19;20118;-58
2022/10/08 00:28:48;;;;;;;0.00;0.00;;;;;;;11.28;66.16;101367.09;7363247;19;20467;-58
2022/10/08 00:31:17;;;;;;;0.00;0.00;;;;;;;11.29;65.66;101367.97;7362261;19;20010;-57
2022/10/08 00:33:42;;;;;;;0.00;0.00;;;;;;;11.27;65.55;101369.75;7364781;19;20010;-57
2022/10/08 00:36:11;;;;;;;0.00;0.00;;;;;;;11.26;66.51;101373.25;7363509;19;20034;-58
2022/10/08 00:38:37;;;;;;;0.00;0.00;;;;;;;11.24;66.42;101377.63;7362775;19;20018;-57
2022/10/08 00:41:05;;;;;;;0.00;0.00;;;;;;;11.23;65.74;101378.50;7363375;19;20010;-58
2022/10/08 00:43:45;;;;;;;0.00;0.00;;;;;;;11.20;65.35;101383.78;7361994;19;20047;-58
2022/10/08 00:46:21;;;;;;;0.00;0.00;;;;;;;11.18;65.76;101392.50;7363013;19;20860;-58
2022/10/08 00:48:49;;;;;;;0.00;0.00;;;;;;;11.15;66.30;101387.34;7363236;19;20022;-58
2022/10/08 00:51:15;;;;;;;0.00;0.00;;;;;;;11.13;65.67;101403.91;7359027;19;20672;-56
2022/10/08 00:53:42;;;;;;;0.00;0.00;;;;;;;11.09;65.62;101391.78;7362519;19;20018;-58
2022/10/08 00:56:08;;;;;;;0.00;0.00;;;;;;;11.07;66.41;101402.25;7362735;19;20006;-57
2022/10/08 00:58:34;;;;;;;0.00;0.00;;;;;;;11.05;66.18;101411.88;7362654;19;20010;-56
2022/10/08 01:01:01;;;;;;;0.00;0.00;;;;;;;11.01;66.13;101399.72;7362253;19;20043;-57
2022/10/08 01:03:26;;;;;;;0.00;0.00;;;;;;;10.98;66.66;101399.75;7361569;19;20017;-57
2022/10/08 01:06:25;;;;;;;0.00;0.00;;;;;;;10.99;65.78;101403.22;7362526;19;20018;-57
2022/10/08 01:09:00;;;;;;;0.00;0.00;;;;;;;10.96;65.43;101412.00;7255009;19;2004366;-55
2022/10/08 01:11:29;;;;;;;0.00;0.00;;;;;;;10.93;66.47;101417.25;7360712;19;20035;-58
2022/10/08 01:14:03;;;;;;;0.00;0.00;;;;;;;10.91;66.83;101408.56;7355710;19;20018;-57
2022/10/08 01:16:53;;;;;;;0.00;0.00;;;;;;;10.89;66.68;101415.53;7359600;19;20002;-58
2022/10/08 01:19:46;;;;;;;0.00;0.00;;;;;;;10.89;66.12;101420.78;7358909;19;20491;-58
2022/10/08 01:22:34;;;;;;;0.00;0.00;;;;;;;10.86;67.23;101420.84;7259528;19;2004525;-58
2022/10/08 01:25:32;;;;;;;0.00;0.00;;;;;;;10.85;66.49;101421.72;7360185;19;20014;-57
2022/10/08 01:28:17;;;;;;;0.00;0.00;;;;;;;10.83;66.39;101424.31;7258878;19;2005688;-57
2022/10/08 01:31:01;;;;;;;0.00;0.00;;;;;;;10.80;66.66;101427.00;7361777;19;20010;-58
2022/10/08 01:33:49;;;;;;;0.00;0.00;;;;;;;10.78;66.04;101427.88;7361827;19;20006;-57
2022/10/08 01:36:17;;;;;;;0.00;0.00;;;;;;;10.74;67.44;101429.66;7361871;19;20010;-56
2022/10/08 01:38:48;;;;;;;0.00;0.00;;;;;;;10.74;67.26;101432.28;7358393;19;20034;-57
2022/10/08 01:41:17;;;;;;;0.10;0.10;;;;;;;10.73;67.17;101429.69;7361802;19;20007;-58
2022/10/08 01:43:48;;;;;;;0.00;0.00;;;;;;;10.70;67.37;101434.97;7361421;19;20082;-56
2022/10/08 01:46:23;;;;;;;0.00;0.00;;;;;;;10.70;67.06;101445.41;7363097;19;20014;-58
2022/10/08 01:48:51;;;;;;;0.00;0.00;;;;;;;10.68;67.52;101449.78;7359642;19;20010;-58
2022/10/08 01:51:26;;;;;;;0.00;0.00;;;;;;;10.66;67.11;101449.78;7360970;19;20022;-58
2022/10/08 01:53:52;;;;;;;0.00;0.00;;;;;;;10.64;67.55;101455.03;7359164;19;20007;-58
2022/10/08 01:56:26;;;;;;;0.00;0.00;;;;;;;10.58;67.47;101451.63;7362154;19;20018;-58
2022/10/08 01:59:04;;;;;;;0.00;0.00;;;;;;;10.61;67.30;101452.44;7349245;19;20066;-58
2022/10/08 02:01:57;;;;;;;0.00;0.00;;;;;;;10.60;67.06;101455.09;7358095;19;20013;-56
2022/10/08 02:04:31;;;;;;;0.00;0.00;;;;;;;10.48;67.45;101450.84;7260193;19;2004316;-58
2022/10/08 02:07:00;;;;;;;0.00;0.00;;;;;;;10.55;67.97;101462.13;7358138;19;20034;-58
2022/10/08 02:09:27;;;;;;;0.00;0.00;;;;;;;10.52;67.53;101463.00;7362114;19;20017;-58
2022/10/08 02:11:53;;;;;;;0.00;0.00;;;;;;;10.51;67.07;101461.28;7364675;19;20007;-58
2022/10/08 02:14:24;;;;;;;0.00;0.00;;;;;;;10.49;67.55;101470.88;7364757;19;20011;-58
2022/10/08 02:17:13;;;;;;;0.05;0.05;;;;;;;10.48;66.61;101458.69;7363937;19;20021;-57
2022/10/08 02:20:02;;;;;;;0.00;0.00;;;;;;;10.45;66.24;101466.56;7363596;19;20094;-58
2022/10/08 02:22:57;;;;;;;0.00;0.00;;;;;;;10.33;66.46;101451.00;7361384;19;20439;-58
2022/10/08 02:25:32;;;;;;;0.00;0.00;;;;;;;10.40;66.58;101457.91;7266546;19;2004553;-57
2022/10/08 02:28:13;;;;;;;0.00;0.00;;;;;;;10.37;66.81;101460.53;7365721;19;20573;-57
2022/10/08 02:31:29;;;;;;;0.00;0.00;;;;;;;10.35;66.55;101475.38;7366929;19;20002;-58
2022/10/08 02:34:11;;;;;;;0.00;0.00;;;;;;;10.31;67.73;101473.66;7261073;19;2004244;-58
2022/10/08 02:36:41;;;;;;;0.00;0.00;;;;;;;10.28;68.04;101473.66;7363480;19;20546;-56
2022/10/08 02:39:08;;;;;;;0.00;0.00;;;;;;;10.20;67.18;101470.25;7364845;19;20010;-58
2022/10/08 02:41:43;;;;;;;0.00;0.00;;;;;;;10.11;67.77;101456.38;7368420;19;20018;-57
2022/10/08 02:44:13;;;;;;;0.00;0.00;;;;;;;10.18;68.42;101472.84;7364131;19;20026;-58
2022/10/08 02:46:42;;;;;;;0.00;0.00;;;;;;;10.21;67.87;101477.19;7365685;19;20018;-58
2022/10/08 02:49:13;;;;;;;0.00;0.00;;;;;;;10.20;68.51;101491.13;7366231;19;20014;-58
2022/10/08 02:51:44;;;;;;;0.00;0.00;;;;;;;10.18;68.76;101482.44;7365961;19;20014;-57
2022/10/08 02:54:10;;;;;;;0.00;0.00;;;;;;;10.14;68.45;101482.47;7368114;19;20010;-57
2022/10/08 02:56:39;;;;;;;0.00;0.00;;;;;;;10.14;68.27;101490.31;7366605;19;20011;-58
2022/10/08 02:59:05;;;;;;;0.00;0.00;;;;;;;10.12;67.70;101481.59;7364028;19;20014;-56
2022/10/08 03:01:45;;;;;;;0.00;0.00;;;;;;;10.12;68.15;101488.56;7367991;19;20007;-57
2022/10/08 03:04:22;;;;;;;0.00;0.00;;;;;;;10.10;68.25;101485.97;7366194;19;20014;-58
2022/10/08 03:06:49;;;;;;;0.00;0.00;;;;;;;10.09;68.22;101492.09;7366925;19;20018;-58
2022/10/08 03:09:17;;;;;;;0.00;0.00;;;;;;;9.98;68.55;101480.84;7365232;19;20375;-56
2022/10/08 03:11:43;;;;;;;0.00;0.00;;;;;;;10.06;68.67;101494.69;7367195;19;20757;-57
2022/10/08 03:14:11;;;;;;;0.00;0.00;;;;;;;10.05;68.77;101492.97;7358961;19;20018;-58
2022/10/08 03:16:39;;;;;;;0.00;0.00;;;;;;;10.04;68.79;101495.63;7366477;19;20343;-58
2022/10/08 03:19:07;;;;;;;0.00;0.00;;;;;;;10.01;68.52;101491.25;7362269;19;20022;-58
2022/10/08 03:21:33;;;;;;;;;;;;;;;10.03;66.80;101494.72;7365531;19;20006;-58
2022/10/08 03:23:58;;;;;;;0.00;0.00;;;;;;;9.86;68.10;101465.28;7366696;19;21647;-58
2022/10/08 03:26:24;;;;;;;0.00;0.00;;;;;;;9.96;68.93;101498.25;7366673;19;20090;-58
2022/10/08 03:28:52;;;;;;;0.00;0.00;;;;;;;9.96;68.78;101493.03;7367375;19;20014;-57
2022/10/08 03:31:17;;;;;;;0.00;0.00;;;;;;;9.82;68.80;101482.69;7367072;19;20018;-56
2022/10/08 03:33:43;;;;;;;0.00;0.00;;;;;;;9.92;68.78;101496.53;7368380;19;20018;-58
2022/10/08 03:36:08;;;;;;;0.10;0.10;;;;;;;9.91;68.91;101499.19;7361997;19;20015;-58
2022/10/08 03:38:33;;;;;;;0.00;0.00;;;;;;;9.87;68.81;101501.78;7365649;19;20462;-58
2022/10/08 03:40:59;;;;;;;0.00;0.00;;;;;;;9.87;68.19;101514.84;7367285;19;20363;-58
2022/10/08 03:43:30;;;;;;;0.00;0.00;;;;;;;9.84;68.63;101506.19;7367577;19;20017;-57
2022/10/08 03:45:55;;;;;;;0.00;0.00;;;;;;;9.82;68.70;101511.41;7366579;19;20011;-59
2022/10/08 03:48:21;;;;;;;0.00;0.00;;;;;;;9.79;68.49;101518.41;7366149;19;20340;-58
2022/10/08 03:50:54;;;;;;;0.00;0.00;;;;;;;9.67;68.60;101495.84;7364530;19;20010;-58
2022/10/08 03:53:21;;;;;;;0.00;0.00;;;;;;;9.76;69.12;101523.63;7364330;19;20834;-57
2022/10/08 03:55:47;;;;;;;0.00;0.00;;;;;;;9.75;69.25;101524.50;7364833;19;20030;-58
2022/10/08 03:58:12;;;;;;;0.00;0.00;;;;;;;9.74;69.10;101533.22;7362552;19;20010;-57
2022/10/08 04:00:38;;;;;;;0.00;0.00;;;;;;;9.72;68.93;101533.19;7367498;19;20014;-57
2022/10/08 04:03:04;;;;;;;0.00;0.00;;;;;;;9.72;68.87;101540.16;7367046;19;20044;-58
2022/10/08 04:05:29;;;;;;;0.00;0.00;;;;;;;9.70;69.17;101539.31;7367129;19;20014;-58
2022/10/08 04:07:55;;;;;;;0.00;0.00;;;;;;;9.67;69.33;101536.72;7364213;19;20601;-58
2022/10/08 04:10:20;;;;;;;0.00;0.00;;;;;;;9.66;69.15;101538.44;7366492;19;20420;-57
2022/10/08 04:12:45;;;;;;;0.00;0.00;;;;;;;9.66;68.55;101545.41;7365480;19;20014;-57
2022/10/08 04:15:11;;;;;;;0.00;0.00;;;;;;;9.65;68.82;101543.69;7368427;19;20432;-57
2022/10/08 04:17:36;;;;;;;0.00;0.00;;;;;;;9.59;68.59;101537.63;7365556;19;20018;-58
2022/10/08 04:20:02;;;;;;;0.00;0.00;;;;;;;9.60;69.22;101541.97;7364776;19;20045;-58
2022/10/08 04:22:28;;;;;;;0.03;0.03;;;;;;;9.59;68.98;101550.66;7365965;19;20014;-58
2022/10/08 04:24:53;;;;;;;0.00;0.00;;;;;;;9.58;68.64;101543.72;7366483;19;20052;-59
2022/10/08 04:27:18;;;;;;;0.00;0.00;;;;;;;9.57;68.41;101549.78;7365430;19;20074;-57
2022/10/08 04:29:44;;;;;;;0.00;0.00;;;;;;;9.56;68.68;101558.50;7367222;19;20011;-58
2022/10/08 04:32:09;;;;;;;0.00;0.00;;;;;;;9.53;69.33;101555.03;7362489;19;20014;-58
2022/10/08 04:34:34;;;;;;;0.00;0.00;;;;;;;9.54;69.76;101556.78;7366569;19;20137;-58
2022/10/08 04:37:00;;;;;;;0.00;0.00;;;;;;;9.54;69.63;101562.84;7364953;19;20014;-57
2022/10/08 04:39:25;;;;;;;0.00;0.00;;;;;;;9.53;69.63;101560.25;7364214;19;20007;-59
2022/10/08 04:41:51;;;;;;;0.00;0.00;;;;;;;9.48;69.20;101552.47;7365396;19;20827;-58
2022/10/08 04:44:16;;;;;;;0.00;0.00;;;;;;;9.52;69.40;101564.59;7365233;19;20043;-58
2022/10/08 04:46:41;;;;;;;0.00;0.00;;;;;;;9.51;69.41;101568.06;7365571;19;21154;-58
2022/10/08 04:49:08;;;;;;;0.00;0.00;;;;;;;9.52;69.78;101569.81;7364563;19;20006;-58
2022/10/08 04:51:34;;;;;;;0.00;0.00;;;;;;;9.50;69.16;101571.56;7364802;19;20031;-53
2022/10/08 04:54:00;;;;;;;0.00;0.00;;;;;;;9.50;69.63;101575.91;7364701;19;20014;-56
2022/10/08 04:56:29;;;;;;;0.00;0.00;;;;;;;9.52;69.56;101585.44;7363992;19;20030;-57
2022/10/08 04:58:56;;;;;;;0.00;0.00;;;;;;;9.50;69.67;101584.59;7362640;19;20010;-58
2022/10/08 05:01:22;;;;;;;0.00;0.00;;;;;;;9.47;70.10;101575.91;7364825;19;20020;-58
2022/10/08 05:03:50;;;;;;;0.00;0.00;;;;;;;9.46;70.24;101585.47;7366720;19;20006;-58
2022/10/08 05:06:17;;;;;;;0.00;0.00;;;;;;;9.47;69.63;101592.41;7365206;19;20101;-57
2022/10/08 05:08:44;;;;;;;0.00;0.00;;;;;;;9.47;69.32;101601.97;7362584;19;20018;-57
2022/10/08 05:11:10;;;;;;;0.00;0.00;;;;;;;9.46;68.87;101593.31;7364672;19;20014;-58
2022/10/08 05:13:35;;;;;;;0.10;0.10;;;;;;;9.45;69.83;101593.31;7364343;19;20022;-58
2022/10/08 05:16:19;;;;;;;0.00;0.00;;;;;;;9.45;68.97;101590.72;7364126;19;20014;-57
2022/10/08 05:18:46;;;;;;;0.00;0.00;;;;;;;9.39;69.83;101591.59;7363693;19;20027;-58
2022/10/08 05:21:14;;;;;;;0.00;0.00;;;;;;;9.39;69.65;101589.00;7365514;19;21057;-58
2022/10/08 05:23:41;;;;;;;0.00;0.00;;;;;;;9.39;70.34;101594.22;7365649;19;20735;-59
2022/10/08 05:26:28;;;;;;;0.00;0.00;;;;;;;9.40;68.65;101601.16;7362675;19;20499;-58
2022/10/08 05:28:56;;;;;;;0.00;0.00;;;;;;;9.36;69.76;101596.81;7359350;19;20030;-56
2022/10/08 05:31:23;;;;;;;0.00;0.00;;;;;;;9.27;69.87;101578.59;7364671;19;20010;-58
2022/10/08 05:33:48;;;;;;;0.00;0.00;;;;;;;9.32;70.28;101588.13;7363601;19;20347;-58
2022/10/08 05:36:19;;;;;;;0.00;0.00;;;;;;;9.31;70.08;101590.75;7364662;19;20010;-58
2022/10/08 05:38:44;;;;;;;0.00;0.00;;;;;;;9.29;70.52;101597.72;7362008;19;20879;-59
2022/10/08 05:41:15;;;;;;;0.00;0.00;;;;;;;9.29;70.36;101597.72;7364742;19;20010;-57
2022/10/08 05:43:41;;;;;;;0.00;0.00;;;;;;;9.25;70.16;101591.63;7357959;19;20025;-57
2022/10/08 05:46:07;;;;;;;0.00;0.00;;;;;;;9.25;70.00;101595.97;7364278;19;20466;-58
2022/10/08 05:48:33;;;;;;;0.00;0.00;;;;;;;9.23;70.30;101592.53;7363459;19;20002;-57
2022/10/08 05:51:13;;;;;;;0.10;0.10;;;;;;;9.23;69.75;101592.53;7364715;19;26056;-58
2022/10/08 05:53:41;;;;;;;0.00;0.00;;;;;;;9.23;69.98;101597.75;7363667;19;20038;-58
2022/10/08 05:56:09;;;;;;;0.00;0.00;;;;;;;9.18;70.56;101583.84;7362244;19;20018;-58
2022/10/08 05:58:36;;;;;;;0.00;0.00;;;;;;;9.21;70.16;101594.25;7352228;19;20089;-58
2022/10/08 06:01:05;;;;;;;0.00;0.00;;;;;;;9.22;70.05;101601.19;7363036;19;20017;-58
2022/10/08 06:03:30;;;;;;;0.00;0.00;;;;;;;9.20;70.50;101589.91;7358882;19;20357;-56
2022/10/08 06:06:02;;;;;;;0.00;0.00;;;;;;;9.22;69.19;101590.78;7362014;19;20031;-58
2022/10/08 06:08:27;;;;;;;0.00;0.00;;;;;;;9.19;70.75;101596.00;7360940;19;20019;-58
2022/10/08 06:10:55;;;;;;;0.00;0.00;;;;;;;9.21;70.80;101599.47;7362185;19;20014;-58
2022/10/08 06:13:22;;;;;;;0.00;0.00;;;;;;;9.22;70.63;101606.41;7360825;19;20022;-58
2022/10/08 06:16:05;;;;;;;0.00;0.00;;;;;;;9.24;69.95;101609.91;7361991;19;20094;-58
2022/10/08 06:18:34;;;;;;;0.03;0.03;;;;;;;9.24;70.79;101610.75;7360235;19;20019;-57
2022/10/08 06:21:04;;;;;;;0.10;0.10;;;;;;;9.24;70.62;101615.97;7361482;19;20040;-58
2022/10/08 06:23:30;;;;;;;0.00;0.00;;;;;;;9.26;70.41;101613.34;7362297;19;20036;-58
2022/10/08 06:25:59;;;;;;;0.00;0.00;;;;;;;9.26;70.50;101619.44;7360539;19;20011;-58
2022/10/08 06:28:24;;;;;;;0.00;0.00;;;;;;;9.27;70.41;101626.38;7359925;19;20018;-58
2022/10/08 06:30:50;;;;;;;0.00;0.00;;;;;;;9.27;70.64;101615.94;7361043;19;20014;-57
2022/10/08 06:33:15;;;;;;;0.00;0.00;;;;;;;9.27;70.71;101625.50;7361317;19;20028;-58
2022/10/08 06:35:41;;;;;;;0.00;0.00;;;;;;;9.29;70.45;101622.03;7358904;19;20030;-55
2022/10/08 06:38:06;;;;;;;0.00;0.00;;;;;;;9.30;70.78;101625.50;7354697;19;20021;-58
2022/10/08 06:40:37;;;;;;;0.00;0.00;;;;;;;9.31;70.49;101627.25;7361059;19;20021;-58
2022/10/08 06:43:10;;;;;;;0.00;0.00;;;;;;;9.31;70.79;101629.84;7359815;19;20866;-58
2022/10/08 06:45:40;;;;;;;0.00;0.00;;;;;;;9.34;70.24;101632.47;7361318;19;20018;-56
2022/10/08 06:48:06;;;;;;;0.00;0.00;;;;;;;9.30;70.54;101635.94;7359997;19;20010;-58
2022/10/08 06:50:33;;;;;;;0.00;0.00;;;;;;;9.32;70.60;101640.25;7360373;19;20021;-58
2022/10/08 06:52:58;;;;;;;0.00;0.00;;;;;;;9.32;71.19;101650.69;7360416;19;20020;-58
2022/10/08 06:55:24;;;;;;;0.00;0.00;;;;;;;9.33;71.10;101641.16;7364946;19;21263;-58
2022/10/08 06:57:49;;;;;;;0.00;0.00;;;;;;;9.33;70.82;101648.97;7365139;19;20036;-53
2022/10/08 07:00:15;;;;;;;0.00;0.00;;;;;;;9.34;70.62;101658.53;7366976;19;20074;-58
2022/10/08 07:02:40;;;;;;;0.00;0.00;;;;;;;9.34;70.73;101650.69;7362179;19;20011;-58
2022/10/08 07:05:06;;;;;;;0.00;0.00;;;;;;;9.34;70.68;101653.31;7368889;19;20032;-58
2022/10/08 07:07:31;;;;;;;0.00;0.00;;;;;;;9.23;70.54;101636.84;7367442;19;20014;-58
2022/10/08 07:09:57;;;;;;;0.00;0.00;;;;;;;9.35;70.61;101660.25;7365395;19;20791;-58
2022/10/08 07:12:22;;;;;;;0.00;0.00;;;;;;;9.25;70.98;101645.50;7361566;19;20007;-56
2022/10/08 07:14:47;;;;;;;0.00;0.00;;;;;;;9.28;70.71;101653.31;7366964;19;20010;-54
2022/10/08 07:17:13;;;;;;;0.00;0.00;;;;;;;9.33;70.81;101662.00;7365685;19;20129;-56
2022/10/08 07:19:38;;;;;;;0.00;0.00;;;;;;;9.35;71.10;101665.47;7366387;19;20020;-58
2022/10/08 07:22:04;;;;;;;0.00;0.00;;;;;;;9.37;70.88;101668.91;7365130;19;20011;-58
2022/10/08 07:24:29;;;;;;;0.10;0.10;;;;;;;9.37;70.97;101679.34;7364945;19;20007;-58
2022/10/08 07:26:54;;;;;;;0.00;0.00;;;;;;;9.38;70.95;101675.91;7364719;19;20055;-58
2022/10/08 07:29:23;;;;;;;0.00;0.00;;;;;;;9.36;71.32;101677.63;7365670;19;20022;-54
2022/10/08 07:31:48;;;;;;;0.00;0.00;;;;;;;9.41;71.27;101688.03;7364325;19;20019;-57
2022/10/08 07:34:14;;;;;;;0.10;0.10;;;;;;;9.44;70.37;101688.03;7364856;19;20052;-58
2022/10/08 07:36:40;;;;;;;0.03;0.03;;;;;;;9.42;71.74;101682.81;7363648;19;20007;-58
2022/10/08 07:39:09;;;;;;;0.00;0.00;;;;;;;9.50;71.29;101695.84;7364480;19;20751;-58
2022/10/08 07:41:35;;;;;;;0.00;0.00;;;;;;;9.53;71.16;101694.09;7361544;19;20037;-58
2022/10/08 07:44:01;;;;;;;0.00;0.00;;;;;;;9.56;71.30;101701.91;7355172;19;20010;-58
2022/10/08 07:46:29;;;;;;;0.00;0.00;;;;;;;9.61;71.28;101712.31;7359642;19;20040;-58
2022/10/08 07:48:57;;;;;;;0.03;0.03;;;;;;;9.66;71.36;101710.56;7362203;19;20022;-55
2022/10/08 07:51:24;;;;;;;0.00;0.00;;;;;;;9.72;71.52;101720.13;7359213;19;20014;-57
2022/10/08 07:53:49;;;;;;;0.00;0.00;;;;;;;9.80;71.75;101720.97;7336687;19;20507;-56
2022/10/08 07:56:18;;;;;;;0.00;0.00;;;;;;;9.91;71.34;101713.97;7360181;19;20074;-58
2022/10/08 07:58:43;;;;;;;0.00;0.00;;;;;;;9.99;71.72;101712.22;7360473;19;20568;-58
2022/10/08 08:01:12;;;;;;;0.00;0.00;;;;;;;10.17;71.39;101715.59;7360324;19;20113;-57
2022/10/08 08:03:38;;;;;;;0.00;0.00;;;;;;;10.29;71.74;101719.06;7361846;19;20900;-58
2022/10/08 08:06:08;;;;;;;0.00;0.00;;;;;;;10.46;71.65;101724.19;7359865;19;20094;-57
2022/10/08 08:08:34;;;;;;;0.00;0.00;;;;;;;10.60;71.46;101724.97;7361335;19;20007;-57
2022/10/08 08:11:01;;;;;;;0.00;0.00;;;;;;;10.77;71.37;101724.00;7358706;19;25779;-56
2022/10/08 08:13:28;;;;;;;0.00;0.00;;;;;;;10.83;71.18;101708.25;7360365;19;20018;-58
2022/10/08 08:16:05;;;;;;;0.00;0.00;;;;;;;11.03;70.79;101727.25;7347600;19;20866;-56
2022/10/08 08:18:32;;;;;;;0.00;0.00;;;;;;;11.07;70.59;101728.97;7353936;19;20019;-56
2022/10/08 08:21:03;;;;;;;0.00;0.00;;;;;;;11.20;70.43;101734.94;7349135;19;20772;-56
2022/10/08 08:23:29;;;;;;;0.00;0.00;;;;;;;11.32;70.41;101726.16;7348734;19;20019;-56
2022/10/08 08:25:55;;;;;;;0.08;0.08;;;;;;;11.43;70.47;101727.78;7354277;19;20099;-58
2022/10/08 08:28:22;;;;;;;0.00;0.00;;;;;;;11.59;70.86;101728.47;7353507;19;20039;-57
2022/10/08 08:30:47;;;;;;;0.00;0.00;;;;;;;11.74;70.45;101731.81;7351653;19;20009;-58
2022/10/08 08:33:13;;;;;;;0.00;0.00;;;;;;;11.92;70.53;101724.69;7356966;19;20006;-58
2022/10/08 08:35:39;;;;;;;0.00;0.00;;;;;;;12.10;70.41;101718.31;7357785;19;20011;-57
2022/10/08 08:38:04;;;;;;;0.00;0.00;;;;;;;12.29;70.42;101721.59;7353338;19;20021;-58
2022/10/08 08:40:30;;;;;;;0.00;0.00;;;;;;;12.50;70.44;101730.91;7355805;19;20014;-58
2022/10/08 08:42:55;;;;;;;0.00;0.00;;;;;;;12.65;70.16;101714.09;7357470;19;20089;-58
2022/10/08 08:45:21;;;;;;;0.00;0.00;;;;;;;12.94;70.09;101721.50;7358523;19;19998;-57
2022/10/08 08:47:55;;;;;;;0.00;0.00;;;;;;;13.19;70.04;101728.06;7359596;19;20122;-58
2022/10/08 08:50:28;;;;;;;0.00;0.00;;;;;;;13.40;69.45;101731.25;7357839;19;20011;-58
2022/10/08 08:52:54;;;;;;;0.00;0.00;;;;;;;13.57;69.29;101737.03;7358131;19;20023;-59
2022/10/08 08:55:33;;;;;;;0.00;0.00;;;;;;;13.82;69.26;101739.19;7355087;19;20019;-57
2022/10/08 08:58:10;;;;;;;0.00;0.00;;;;;;;14.01;69.08;101727.44;7353539;19;20113;-58
2022/10/08 09:00:40;;;;;;;0.00;0.00;;;;;;;14.19;68.45;101740.19;7355471;19;20012;-57
2022/10/08 09:03:20;;;;;;;0.10;0.10;;;;;;;14.47;68.53;101742.22;7357884;19;20021;-57
2022/10/08 09:05:50;;;;;;;0.00;0.00;;;;;;;14.46;67.27;101716.84;7353230;19;20455;-58
2022/10/08 09:08:22;;;;;;;0.00;0.00;;;;;;;14.88;67.93;101745.69;7355057;19;20013;-57
2022/10/08 09:11:00;;;;;;;0.10;0.10;;;;;;;15.15;67.70;101749.41;7354804;19;20040;-57
2022/10/08 09:14:03;;;;;;;0.00;0.00;;;;;;;15.46;68.46;101749.47;7354919;19;20884;-58
2022/10/08 09:16:28;;;;;;;0.10;0.10;;;;;;;15.62;66.37;101750.84;7253008;19;2004324;-57
2022/10/08 09:18:54;;;;;;;0.00;0.00;;;;;;;15.76;66.43;101743.47;7355461;19;20469;-56
2022/10/08 09:21:20;;;;;;;0.10;0.10;;;;;;;16.03;65.60;101752.34;7353980;19;20109;-58
2022/10/08 09:23:46;;;;;;;0.10;0.10;;;;;;;16.23;65.71;101751.78;7356436;19;20474;-58
2022/10/08 09:26:15;;;;;;;0.00;0.00;;;;;;;16.51;65.14;101758.84;7353323;19;20033;-57
2022/10/08 09:28:51;;;;;;;0.10;0.10;;;;;;;16.73;65.76;101746.75;7353955;19;20014;-57
2022/10/08 09:31:25;;;;;;;0.03;0.03;;;;;;;17.02;65.39;101760.78;7347008;19;20017;-59
2022/10/08 09:34:00;;;;;;;0.00;0.00;;;;;;;17.24;64.87;101756.53;7352684;19;20474;-57
2022/10/08 09:36:46;;;;;;;0.00;0.00;;;;;;;17.49;65.31;101751.28;7351744;19;20018;-56
2022/10/08 09:39:32;;;;;;;0.00;0.00;;;;;;;17.68;63.59;101758.53;7350548;19;20014;-57
2022/10/08 09:42:07;;;;;;;0.10;0.10;;;;;;;17.88;63.78;101764.00;7354625;19;20089;-57
2022/10/08 09:44:57;;;;;;;0.00;0.00;;;;;;;18.08;64.44;101760.63;7351615;19;20013;-58
2022/10/08 09:47:25;;;;;;;0.00;0.00;;;;;;;18.18;61.73;101767.31;7251945;19;2004445;-56
2022/10/08 09:50:05;;;;;;;0.05;0.05;;;;;;;18.44;63.35;101761.03;7348902;19;20724;-57
2022/10/08 09:52:30;;;;;;;0.00;0.00;;;;;;;18.48;60.89;101764.41;7353024;19;20014;-58
2022/10/08 09:55:07;;;;;;;0.00;0.00;;;;;;;18.76;63.34;101765.09;7352979;19;22162;-57
2022/10/08 09:57:34;;;;;;;0.10;0.10;;;;;;;18.71;59.76;101743.25;7347817;19;20015;-57
2022/10/08 10:00:03;;;;;;;0.00;0.00;;;;;;;19.03;60.28;101759.59;7353702;19;20018;-58
2022/10/08 10:02:35;;;;;;;0.00;0.00;;;;;;;19.17;59.14;101762.56;7351977;19;20011;-56
2022/10/08 10:05:16;;;;;;;0.03;0.03;;;;;;;19.27;59.19;101769.19;7352992;19;20086;-55
2022/10/08 10:07:44;;;;;;;0.00;0.00;;;;;;;19.41;58.04;101753.56;7354162;19;20481;-58
2022/10/08 10:10:37;;;;;;;0.10;0.10;;;;;;;19.65;59.74;101761.41;7351409;19;20481;-57
2022/10/08 10:13:13;;;;;;;0.00;0.00;;;;;;;19.81;59.73;101759.78;7352780;19;20014;-58
2022/10/08 10:16:02;;;;;;;0.08;0.08;;;;;;;19.92;59.45;101739.00;7350823;19;20113;-58
2022/10/08 10:18:59;;;;;;;0.10;0.10;;;;;;;20.21;60.04;101765.94;7353804;19;20044;-58
2022/10/08 10:21:38;;;;;;;0.00;0.00;;;;;;;20.40;58.72;101761.53;7246790;19;2004555;-58
2022/10/08 10:24:30;;;;;;;0.08;0.08;;;;;;;20.66;58.19;101756.81;7351043;19;20011;-57
2022/10/08 10:27:06;;;;;;;0.10;0.10;;;;;;;20.69;57.78;101738.94;7250474;19;2004784;-58
2022/10/08 10:29:50;;;;;;;0.10;0.10;;;;;;;21.05;56.87;101758.44;7354406;19;20018;-57
2022/10/08 10:32:22;;;;;;;0.00;0.00;;;;;;;21.27;56.49;101748.47;7359048;19;20017;-58
2022/10/08 10:34:57;;;;;;;0.00;0.00;;;;;;;21.46;55.20;101759.91;7355748;19;20019;-58
2022/10/08 10:37:50;;;;;;;0.10;0.10;;;;;;;21.73;56.75;101751.41;7354691;19;20852;-55
2022/10/08 10:40:32;;;;;;;0.00;0.00;;;;;;;21.90;55.73;101746.09;7256245;19;2004405;-58
2022/10/08 10:43:19;;;;;;;0.00;0.00;;;;;;;22.21;55.69;101763.09;7357480;19;20015;-59
2022/10/08 10:46:08;;;;;;;0.05;0.05;;;;;;;22.49;52.22;101763.25;7357014;19;20006;-58
2022/10/08 10:48:33;;;;;;;0.08;0.08;;;;;;;22.68;50.93;101759.56;7353789;19;20030;-58
2022/10/08 10:51:40;;;;;;;0.10;0.10;;;;;;;23.09;53.80;101767.03;7350121;19;23187;-57
2022/10/08 10:54:24;;;;;;;0.05;0.05;;;;;;;23.20;51.91;101761.91;7257645;19;2004402;-58
2022/10/08 10:57:13;;;;;;;0.03;0.03;;;;;;;23.33;52.36;101765.59;7351413;19;20491;-57
2022/10/08 10:59:46;;;;;;;0.00;0.00;;;;;;;23.39;50.52;101770.53;7353816;19;20014;-58
2022/10/08 11:02:21;;;;;;;0.05;0.05;;;;;;;23.55;49.54;101766.00;7351620;19;20002;-58
2022/10/08 11:04:58;;;;;;;0.10;0.10;;;;;;;23.76;50.87;101763.03;7353762;19;20007;-56
2022/10/08 11:07:30;;;;;;;0.10;0.10;;;;;;;23.84;49.28;101759.91;7351765;19;20018;-58
2022/10/08 11:10:04;;;;;;;0.10;0.10;;;;;;;23.93;48.02;101752.19;7352221;19;20502;-58
2022/10/08 11:12:41;;;;;;;0.05;0.05;;;;;;;24.03;49.31;101756.00;7348677;19;20014;-58
2022/10/08 11:15:36;;;;;;;0.10;0.10;;;;;;;24.28;50.44;101762.44;7356819;19;20002;-57
2022/10/08 11:18:26;;;;;;;0.10;0.10;;;;;;;24.38;47.45;101752.94;7254924;19;2004534;-59
2022/10/08 11:21:00;;;;;;;0.10;0.10;;;;;;;24.53;47.99;101756.41;7256404;19;2004392;-57
2022/10/08 11:23:49;;;;;;;0.10;0.10;;;;;;;24.79;49.69;101744.06;7352913;19;20466;-56
2022/10/08 11:26:31;;;;;;;0.10;0.10;;;;;;;24.97;47.12;101763.34;7348647;19;20014;-56
2022/10/08 11:29:14;;;;;;;0.00;0.00;;;;;;;25.09;46.36;101747.38;7354767;19;20073;-58
2022/10/08 11:31:49;;;;;;;0.10;0.10;;;;;;;25.30;46.70;101752.25;7353395;19;20014;-58
2022/10/08 11:34:34;;;;;;;0.10;0.10;;;;;;;25.46;46.91;101744.03;7356751;19;20027;-58
2022/10/08 11:37:21;;;;;;;0.10;0.10;;;;;;;25.60;47.15;101746.59;7357591;19;20823;-58
2022/10/08 11:40:01;;;;;;;;;;;;;;;25.82;48.82;101746.84;7353567;19;20042;-56
2022/10/08 11:42:30;;;;;;;0.10;0.10;;;;;;;25.88;44.04;101751.75;7343826;19;19934;-57
2022/10/08 11:45:29;;;;;;;0.10;0.10;;;;;;;26.13;46.66;101740.16;7354049;19;20065;-60
2022/10/08 11:47:57;;;;;;;0.08;0.08;;;;;;;26.12;40.48;101743.81;7254020;19;2004614;-59
2022/10/08 11:50:28;;;;;;;0.08;0.08;;;;;;;26.33;40.44;101741.41;7346202;19;20827;-60